createdAt,value
2022-12-12T00:00:35.773Z,80.20
2022-12-12T00:03:21.878Z,80.04
2022-12-12T00:06:07.530Z,80.07
2022-12-12T00:08:53.999Z,79.47
2022-12-12T00:11:40.894Z,78.79
2022-12-12T00:14:26.451Z,79.62
2022-12-12T00:17:11.922Z,79.00
2022-12-12T00:19:57.307Z,79.58
2022-12-12T00:22:42.845Z,79.58
2022-12-12T00:25:28.558Z,79.66
2022-12-12T00:28:14.035Z,80.02
2022-12-12T00:31:00.269Z,79.56
2022-12-12T00:33:48.159Z,79.54
2022-12-12T00:36:33.939Z,80.05
2022-12-12T00:39:19.741Z,79.43
2022-12-12T00:42:05.884Z,79.11
2022-12-12T00:44:51.546Z,79.44
2022-12-12T00:47:37.428Z,80.22
2022-12-12T00:50:23.180Z,79.58
2022-12-12T00:53:09.057Z,79.19
2022-12-12T00:55:56.779Z,79.66
2022-12-12T00:58:42.233Z,79.52
2022-12-12T01:01:30.007Z,79.61
2022-12-12T01:04:16.245Z,80.74
2022-12-12T01:07:01.697Z,79.71
2022-12-12T01:09:47.194Z,79.89
2022-12-12T01:12:32.820Z,80.01
2022-12-12T01:15:18.680Z,79.82
2022-12-12T01:18:04.803Z,79.08
2022-12-12T01:20:51.504Z,80.01
2022-12-12T01:23:37.853Z,79.55
2022-12-12T01:26:24.904Z,79.90
2022-12-12T01:29:10.287Z,79.78
2022-12-12T01:31:55.760Z,80.23
2022-12-12T01:34:41.015Z,79.52
2022-12-12T01:37:26.598Z,80.02
2022-12-12T01:40:31.734Z,80.17
2022-12-12T01:43:19.093Z,79.75
2022-12-12T01:46:04.520Z,80.38
2022-12-12T01:48:56.487Z,79.86
2022-12-12T01:51:43.327Z,80.21
2022-12-12T01:54:36.279Z,80.37
2022-12-12T01:57:32.790Z,79.53
2022-12-12T02:00:19.369Z,79.76
2022-12-12T02:03:05.362Z,79.64
2022-12-12T02:05:58.424Z,79.87
2022-12-12T02:08:46.225Z,80.01
2022-12-12T02:11:35.239Z,79.91
2022-12-12T02:14:28.728Z,79.25
2022-12-12T02:17:34.948Z,79.46
2022-12-12T02:21:02.760Z,79.15
2022-12-12T02:24:06.671Z,79.10
2022-12-12T02:27:10.402Z,79.34
2022-12-12T02:30:37.363Z,79.02
2022-12-12T02:33:37.537Z,78.89
2022-12-12T02:36:25.873Z,78.69
2022-12-12T02:39:56.042Z,79.42
2022-12-12T02:43:20.832Z,79.32
2022-12-12T02:46:45.506Z,79.37
2022-12-12T02:49:38.885Z,78.76
2022-12-12T02:52:25.093Z,78.89
2022-12-12T02:55:11.221Z,77.69
2022-12-12T02:57:57.503Z,77.96
2022-12-12T03:01:11.383Z,77.82
2022-12-12T03:04:22.223Z,77.05
2022-12-12T03:07:40.411Z,77.06
2022-12-12T03:10:38.430Z,77.62
2022-12-12T03:13:34.796Z,77.76
2022-12-12T03:16:38.505Z,77.30
2022-12-12T03:19:35.291Z,77.78
2022-12-12T03:22:53.941Z,78.13
2022-12-12T03:25:47.979Z,78.21
2022-12-12T03:28:37.204Z,77.45
2022-12-12T03:31:28.279Z,77.18
2022-12-12T03:34:23.711Z,76.98
2022-12-12T03:37:15.814Z,76.75
2022-12-12T03:40:18.816Z,77.15
2022-12-12T03:43:12.755Z,77.02
2022-12-12T03:46:12.720Z,77.17
2022-12-12T03:49:02.643Z,77.96
2022-12-12T03:51:56.104Z,77.28
2022-12-12T03:54:52.188Z,78.15
2022-12-12T03:58:02.675Z,77.33
2022-12-12T04:00:51.796Z,77.27
2022-12-12T04:04:09.190Z,77.74
2022-12-12T04:07:18.720Z,77.31
2022-12-12T04:10:24.198Z,78.29
2022-12-12T04:13:34.840Z,78.16
2022-12-12T04:16:30.004Z,77.84
2022-12-12T04:20:02.170Z,77.80
2022-12-12T04:23:18.195Z,77.91
2022-12-12T04:26:29.976Z,78.45
2022-12-12T04:29:36.187Z,77.12
2022-12-12T04:32:28.408Z,77.92
2022-12-12T04:35:19.887Z,77.72
2022-12-12T04:38:10.820Z,77.92
2022-12-12T04:40:59.498Z,77.46
2022-12-12T04:43:49.288Z,77.28
2022-12-12T04:46:37.295Z,76.94
2022-12-12T04:49:27.549Z,77.10
2022-12-12T04:52:15.347Z,77.19
2022-12-12T04:55:27.139Z,77.40
2022-12-12T04:58:13.630Z,77.72
2022-12-12T05:01:15.789Z,77.25
2022-12-12T05:04:07.685Z,77.17
2022-12-12T05:07:00.589Z,76.53
2022-12-12T05:09:46.333Z,76.60
2022-12-12T05:12:39.749Z,76.73
2022-12-12T05:15:27.998Z,77.35
2022-12-12T05:18:13.724Z,76.37
2022-12-12T05:20:59.460Z,76.13
2022-12-12T05:23:45.027Z,77.03
2022-12-12T05:26:34.009Z,76.52
2022-12-12T05:29:20.166Z,77.16
2022-12-12T05:32:05.860Z,76.05
2022-12-12T05:34:51.692Z,76.83
2022-12-12T05:37:37.616Z,76.75
2022-12-12T05:40:24.056Z,75.74
2022-12-12T05:43:11.161Z,76.46
2022-12-12T05:45:56.848Z,76.65
2022-12-12T05:48:42.225Z,76.15
2022-12-12T05:51:27.738Z,75.51
2022-12-12T05:54:13.879Z,75.88
2022-12-12T05:56:59.673Z,75.66
2022-12-12T05:59:48.936Z,76.40
2022-12-12T06:02:35.184Z,76.14
2022-12-12T06:05:21.133Z,75.55
2022-12-12T06:08:06.878Z,75.73
2022-12-12T06:10:52.947Z,76.41
2022-12-12T06:13:38.900Z,76.42
2022-12-12T06:16:24.936Z,76.12
2022-12-12T06:19:11.848Z,76.93
2022-12-12T06:21:57.663Z,76.21
2022-12-12T06:24:43.067Z,75.75
2022-12-12T06:27:28.930Z,76.42
2022-12-12T06:30:15.840Z,76.29
2022-12-12T06:33:01.941Z,75.68
2022-12-12T06:36:00.888Z,76.05
2022-12-12T06:38:46.905Z,75.83
2022-12-12T06:41:33.378Z,76.01
2022-12-12T06:44:19.114Z,75.93
2022-12-12T06:47:04.776Z,77.13
2022-12-12T06:49:50.599Z,76.79
2022-12-12T06:52:35.852Z,76.38
2022-12-12T06:55:21.437Z,76.89
2022-12-12T06:58:06.918Z,76.56
2022-12-12T07:00:53.680Z,76.31
2022-12-12T07:03:39.914Z,76.21
2022-12-12T07:06:25.967Z,76.08
2022-12-12T07:09:12.144Z,76.21
2022-12-12T07:11:57.864Z,74.78
2022-12-12T07:14:43.400Z,75.28
2022-12-12T07:17:29.043Z,75.49
2022-12-12T07:20:15.335Z,75.61
2022-12-12T07:23:00.856Z,75.70
2022-12-12T07:25:46.301Z,75.52
2022-12-12T07:28:32.484Z,74.78
2022-12-12T07:31:20.838Z,75.48
2022-12-12T07:34:06.425Z,75.61
2022-12-12T07:36:51.832Z,75.30
2022-12-12T07:39:37.549Z,75.79
2022-12-12T07:42:23.285Z,75.20
2022-12-12T07:45:12.559Z,75.67
2022-12-12T07:48:02.721Z,75.71
2022-12-12T07:50:48.751Z,75.80
2022-12-12T07:53:34.096Z,75.89
2022-12-12T07:56:20.389Z,75.54
2022-12-12T07:59:06.082Z,76.01
2022-12-12T08:01:51.678Z,75.24
2022-12-12T08:04:37.429Z,75.22
2022-12-12T08:07:23.181Z,75.52
2022-12-12T08:10:09.140Z,75.28
2022-12-12T08:12:54.653Z,75.64
2022-12-12T08:15:39.964Z,75.12
2022-12-12T08:18:25.755Z,75.61
2022-12-12T08:21:12.661Z,75.85
2022-12-12T08:23:59.454Z,75.96
2022-12-12T08:26:45.626Z,75.72
2022-12-12T08:29:31.955Z,75.79
2022-12-12T08:32:17.586Z,75.47
2022-12-12T08:35:03.891Z,75.56
2022-12-12T08:37:49.467Z,75.25
2022-12-12T08:40:36.095Z,75.15
2022-12-12T08:43:21.697Z,76.22
2022-12-12T08:46:12.318Z,75.22
2022-12-12T08:49:01.184Z,75.50
2022-12-12T08:51:47.612Z,75.39
2022-12-12T08:54:33.806Z,74.99
2022-12-12T08:57:25.635Z,75.23
2022-12-12T09:00:12.528Z,75.30
2022-12-12T09:02:58.608Z,75.29
2022-12-12T09:05:45.660Z,75.16
2022-12-12T09:08:31.250Z,75.39
2022-12-12T09:16:09.016Z,75.59
2022-12-12T09:18:54.905Z,75.41
2022-12-12T09:21:40.770Z,75.00
2022-12-12T09:24:26.711Z,74.66
2022-12-12T09:27:12.248Z,75.93
2022-12-12T09:29:57.879Z,74.63
2022-12-12T09:32:45.166Z,74.94
2022-12-12T09:35:31.696Z,75.62
2022-12-12T09:38:19.294Z,75.37
2022-12-12T09:41:21.712Z,74.99
2022-12-12T09:44:12.185Z,75.41
2022-12-12T09:47:06.059Z,75.43
2022-12-12T09:49:57.233Z,75.01
2022-12-12T09:52:44.601Z,75.16
2022-12-12T09:55:42.078Z,75.27
2022-12-12T09:58:42.155Z,75.29
2022-12-12T10:01:32.105Z,75.21
2022-12-12T10:04:31.930Z,75.10
2022-12-12T10:07:37.817Z,74.62
2022-12-12T10:10:41.358Z,74.58
2022-12-12T10:13:30.125Z,75.12
2022-12-12T10:16:15.984Z,75.20
2022-12-12T10:19:19.801Z,75.57
2022-12-12T10:22:15.455Z,75.91
2022-12-12T10:25:39.688Z,75.46
2022-12-12T10:28:28.110Z,75.50
2022-12-12T10:31:24.089Z,75.49
2022-12-12T10:34:24.583Z,74.54
2022-12-12T10:37:38.467Z,74.95
2022-12-12T10:40:33.026Z,75.13
2022-12-12T10:43:53.588Z,75.34
2022-12-12T10:46:46.587Z,74.80
2022-12-12T10:49:32.715Z,75.43
2022-12-12T10:52:22.226Z,74.82
2022-12-12T10:55:18.957Z,75.34
2022-12-12T10:58:06.134Z,75.56
2022-12-12T11:01:00.134Z,74.74
2022-12-12T11:03:51.523Z,74.98
2022-12-12T11:06:45.220Z,75.19
2022-12-12T11:09:31.953Z,75.28
2022-12-12T11:12:18.175Z,75.52
2022-12-12T11:15:17.552Z,75.43
2022-12-12T11:18:06.310Z,75.43
2022-12-12T11:21:08.556Z,75.49
2022-12-12T11:23:56.585Z,75.50
2022-12-12T11:26:52.932Z,74.68
2022-12-12T11:29:52.678Z,74.94
2022-12-12T11:32:46.009Z,75.19
2022-12-12T11:35:36.270Z,76.11
2022-12-12T11:38:31.473Z,75.50
2022-12-12T11:41:18.015Z,75.24
2022-12-12T11:44:04.016Z,75.40
2022-12-12T11:46:49.224Z,74.71
2022-12-12T11:49:46.598Z,75.33
2022-12-12T11:52:33.637Z,75.85
2022-12-12T11:55:33.001Z,75.51
2022-12-12T11:58:54.423Z,75.34
2022-12-12T12:01:48.625Z,75.56
2022-12-12T12:05:09.682Z,74.69
2022-12-12T12:08:32.793Z,74.41
2022-12-12T12:11:45.282Z,74.14
2022-12-12T12:15:04.707Z,74.23
2022-12-12T12:18:11.560Z,75.04
2022-12-12T12:21:09.925Z,75.68
2022-12-12T12:24:07.569Z,74.72
2022-12-12T12:27:28.508Z,74.60
2022-12-12T12:30:27.001Z,74.87
2022-12-12T12:33:38.039Z,74.82
2022-12-12T12:36:42.219Z,74.68
2022-12-12T12:39:48.224Z,75.30
2022-12-12T12:42:59.168Z,75.13
2022-12-12T12:45:49.999Z,75.11
2022-12-12T12:48:50.234Z,75.01
2022-12-12T12:51:45.462Z,75.13
2022-12-12T12:54:39.323Z,74.88
2022-12-12T12:57:39.506Z,75.10
2022-12-12T13:00:30.139Z,75.19
2022-12-12T13:03:24.839Z,75.53
2022-12-12T13:06:18.561Z,74.99
2022-12-12T13:09:16.222Z,75.34
2022-12-12T13:12:12.201Z,75.26
2022-12-12T13:15:12.701Z,76.39
2022-12-12T13:18:04.398Z,75.09
2022-12-12T13:21:15.757Z,75.50
2022-12-12T13:24:19.336Z,74.95
2022-12-12T13:27:21.092Z,74.54
2022-12-12T13:30:25.139Z,74.45
2022-12-12T13:33:42.146Z,74.45
2022-12-12T13:36:49.531Z,74.78
2022-12-12T13:39:37.566Z,74.07
2022-12-12T13:42:23.058Z,74.36
2022-12-12T13:45:39.703Z,74.12
2022-12-12T13:48:28.697Z,74.31
2022-12-12T13:51:33.608Z,74.39
2022-12-12T13:54:19.351Z,74.37
2022-12-12T13:57:13.374Z,74.37
2022-12-12T13:59:59.042Z,74.29
2022-12-12T14:02:57.970Z,73.95
2022-12-12T14:05:53.913Z,73.98
2022-12-12T14:08:48.589Z,73.99
2022-12-12T14:11:36.864Z,74.43
2022-12-12T14:14:23.080Z,74.87
2022-12-12T14:17:21.076Z,73.95
2022-12-12T14:20:07.545Z,75.43
2022-12-12T14:22:56.591Z,74.58
2022-12-12T14:25:43.689Z,74.43
2022-12-12T14:28:32.415Z,74.46
2022-12-12T14:31:18.230Z,74.46
2022-12-12T14:34:04.211Z,74.44
2022-12-12T14:37:20.944Z,74.18
2022-12-12T14:40:18.633Z,74.34
2022-12-12T14:43:18.618Z,74.32
2022-12-12T14:46:06.663Z,74.53
2022-12-12T14:49:03.791Z,74.68
2022-12-12T14:51:51.986Z,74.69
2022-12-12T14:54:37.411Z,74.20
2022-12-12T14:57:24.340Z,75.03
2022-12-12T15:00:19.434Z,74.58
2022-12-12T15:03:05.977Z,75.38
2022-12-12T15:06:29.147Z,75.38
2022-12-12T15:09:19.118Z,75.01
2022-12-12T15:12:10.862Z,74.32
2022-12-12T15:15:00.092Z,74.23
2022-12-12T15:17:49.703Z,74.39
2022-12-12T15:20:35.882Z,74.02
2022-12-12T15:23:22.316Z,73.89
2022-12-12T15:26:17.632Z,73.56
2022-12-12T15:29:03.526Z,73.34
2022-12-12T15:31:56.427Z,73.54
2022-12-12T15:34:45.503Z,73.38
2022-12-12T15:37:36.864Z,73.21
2022-12-12T15:40:26.662Z,73.29
2022-12-12T15:43:15.806Z,73.39
2022-12-12T15:46:14.148Z,73.36
2022-12-12T15:49:00.326Z,73.62
2022-12-12T15:51:46.145Z,72.72
2022-12-12T15:54:31.736Z,73.11
2022-12-12T15:57:24.032Z,73.23
2022-12-12T16:00:44.016Z,73.19
2022-12-12T16:03:31.072Z,73.69
2022-12-12T16:06:17.785Z,72.92
2022-12-12T16:09:12.346Z,73.72
2022-12-12T16:11:59.041Z,73.08
2022-12-12T16:14:44.930Z,73.31
2022-12-12T16:17:31.223Z,73.38
2022-12-12T16:20:17.047Z,74.04
2022-12-12T16:23:32.959Z,74.28
2022-12-12T16:26:19.260Z,73.77
2022-12-12T16:29:05.253Z,73.96
2022-12-12T16:31:51.968Z,73.65
2022-12-12T16:34:39.734Z,73.93
2022-12-12T16:37:26.021Z,74.87
2022-12-12T16:40:16.844Z,75.02
2022-12-12T16:43:09.536Z,75.34
2022-12-12T16:45:58.105Z,76.42
2022-12-12T16:48:45.378Z,76.56
2022-12-12T16:51:33.741Z,77.05
2022-12-12T16:54:19.166Z,78.02
2022-12-12T16:57:04.651Z,78.12
2022-12-12T16:59:50.126Z,78.55
2022-12-12T17:02:36.364Z,78.59
2022-12-12T17:05:47.673Z,78.50
2022-12-12T17:08:33.337Z,79.23
2022-12-12T17:11:19.253Z,78.82
2022-12-12T17:14:05.817Z,79.40
2022-12-12T17:16:53.832Z,79.46
2022-12-12T17:19:39.246Z,79.31
2022-12-12T17:22:25.071Z,79.51
2022-12-12T17:25:12.180Z,79.96
2022-12-12T17:27:58.735Z,79.38
2022-12-12T17:30:46.335Z,79.08
2022-12-12T17:33:35.826Z,79.32
2022-12-12T17:36:24.084Z,78.95
2022-12-12T17:39:11.150Z,78.98
2022-12-12T17:42:00.546Z,78.49
2022-12-12T17:44:46.678Z,79.24
2022-12-12T17:47:32.878Z,78.93
2022-12-12T17:50:19.102Z,78.23
2022-12-12T17:53:05.130Z,78.35
2022-12-12T17:55:55.673Z,77.36
2022-12-12T17:58:48.231Z,77.60
2022-12-12T18:01:34.287Z,77.79
2022-12-12T18:04:27.393Z,77.64
2022-12-12T18:07:14.124Z,77.20
2022-12-12T18:09:59.958Z,77.57
2022-12-12T18:12:49.941Z,77.83
2022-12-12T18:15:37.248Z,77.85
2022-12-12T18:18:24.132Z,77.88
2022-12-12T18:21:29.247Z,77.61
2022-12-12T18:24:23.202Z,77.67
2022-12-12T18:27:09.928Z,77.87
2022-12-12T18:29:55.815Z,77.51
2022-12-12T18:32:40.909Z,76.87
2022-12-12T18:35:26.214Z,77.18
2022-12-12T18:38:11.612Z,76.93
2022-12-12T18:40:57.829Z,77.35
2022-12-12T18:43:43.613Z,76.68
2022-12-12T18:46:31.161Z,76.56
2022-12-12T18:49:18.452Z,77.26
2022-12-12T18:52:05.510Z,77.06
2022-12-12T18:54:52.194Z,76.99
2022-12-12T18:57:37.793Z,76.43
2022-12-12T19:00:24.409Z,77.39
2022-12-12T19:03:10.213Z,76.63
2022-12-12T19:05:56.433Z,77.66
2022-12-12T19:08:42.590Z,76.81
2022-12-12T19:11:28.827Z,77.06
2022-12-12T19:14:16.130Z,77.76
2022-12-12T19:17:01.897Z,78.04
2022-12-12T19:19:50.175Z,77.28
2022-12-12T19:22:51.037Z,77.48
2022-12-12T19:25:42.593Z,77.12
2022-12-12T19:28:28.636Z,77.85
2022-12-12T19:31:16.968Z,77.36
2022-12-12T19:34:06.089Z,77.76
2022-12-12T19:36:52.679Z,76.74
2022-12-12T19:39:38.953Z,77.68
2022-12-12T19:42:24.970Z,76.76
2022-12-12T19:45:12.538Z,77.66
2022-12-12T19:47:58.324Z,76.78
2022-12-12T19:50:46.593Z,77.34
2022-12-12T19:53:32.688Z,76.87
2022-12-12T19:56:27.290Z,76.70
2022-12-12T19:59:15.594Z,77.12
2022-12-12T20:02:01.125Z,77.81
2022-12-12T20:04:47.363Z,77.06
2022-12-12T20:07:32.826Z,77.77
2022-12-12T20:10:18.451Z,77.66
2022-12-12T20:13:07.052Z,78.56
2022-12-12T20:15:53.624Z,78.06
2022-12-12T20:18:41.692Z,78.46
2022-12-12T20:22:00.455Z,77.90
2022-12-12T20:24:44.379Z,77.40
2022-12-12T20:27:34.065Z,78.22
2022-12-12T20:30:19.946Z,78.20
2022-12-12T20:33:05.737Z,77.63
2022-12-12T20:35:52.407Z,77.79
2022-12-12T20:38:49.731Z,77.90
2022-12-12T20:41:39.799Z,78.32
2022-12-12T20:44:26.150Z,77.86
2022-12-12T20:47:14.454Z,78.27
2022-12-12T20:50:03.181Z,77.92
2022-12-12T20:52:50.912Z,78.47
2022-12-12T20:55:37.643Z,78.36
2022-12-12T20:58:23.151Z,78.57
2022-12-12T21:01:23.021Z,78.40
2022-12-12T21:04:09.858Z,78.96
2022-12-12T21:06:57.612Z,78.02
2022-12-12T21:09:43.894Z,78.95
2022-12-12T21:12:29.511Z,78.38
2022-12-12T21:15:16.601Z,78.34
2022-12-12T21:18:05.211Z,78.42
2022-12-12T21:20:50.797Z,78.20
2022-12-12T21:23:37.851Z,77.73
2022-12-12T21:26:28.893Z,77.77
2022-12-12T21:29:16.041Z,77.62
2022-12-12T21:32:01.173Z,77.01
2022-12-12T21:34:47.058Z,77.39
2022-12-12T21:37:38.653Z,77.79
2022-12-12T21:40:26.267Z,78.04
2022-12-12T21:43:12.020Z,78.36
2022-12-12T21:45:58.896Z,77.77
2022-12-12T21:48:46.721Z,78.84
2022-12-12T21:51:32.557Z,78.63
2022-12-12T21:54:17.858Z,78.52
2022-12-12T21:57:03.908Z,78.58
2022-12-12T21:59:50.675Z,78.19
2022-12-12T22:02:36.005Z,78.40
2022-12-12T22:05:23.450Z,77.85
2022-12-12T22:08:09.327Z,77.36
2022-12-12T22:10:54.953Z,77.87
2022-12-12T22:13:42.497Z,78.10
2022-12-12T22:16:33.545Z,77.57
2022-12-12T22:19:19.432Z,77.50
2022-12-12T22:22:04.871Z,77.74
2022-12-12T22:24:50.758Z,77.81
2022-12-12T22:27:36.688Z,77.69
2022-12-12T22:30:22.324Z,77.52
2022-12-12T22:33:07.907Z,77.09
2022-12-12T22:35:54.875Z,77.32
2022-12-12T22:38:41.024Z,77.71
2022-12-12T22:41:27.900Z,77.39
2022-12-12T22:44:16.543Z,77.45
2022-12-12T22:47:02.419Z,77.68
2022-12-12T22:49:47.729Z,77.43
2022-12-12T22:52:34.131Z,77.40
2022-12-12T22:55:19.593Z,77.99
2022-12-12T22:58:05.852Z,78.09
2022-12-12T23:00:53.166Z,77.67
2022-12-12T23:03:39.665Z,77.45
2022-12-12T23:06:30.685Z,77.72
2022-12-12T23:09:20.483Z,78.07
2022-12-12T23:12:07.716Z,77.63
2022-12-12T23:14:53.350Z,77.63
2022-12-12T23:17:38.704Z,77.58
2022-12-12T23:20:24.182Z,77.46
2022-12-12T23:23:10.260Z,78.29
2022-12-12T23:25:56.200Z,78.49
2022-12-12T23:28:43.003Z,77.89
2022-12-12T23:31:32.141Z,78.07
2022-12-12T23:34:24.008Z,77.95
2022-12-12T23:37:09.856Z,77.70
2022-12-12T23:39:55.436Z,77.45
2022-12-12T23:42:40.732Z,77.54
2022-12-12T23:45:26.326Z,77.49
2022-12-12T23:48:11.765Z,77.39
2022-12-12T23:50:58.242Z,77.65
2022-12-12T23:53:44.160Z,77.32
2022-12-12T23:56:30.476Z,77.75
2022-12-12T23:59:18.170Z,77.52
